Terminal Aerodrome Forecast
Issued by NWS Binghamton, NY

Home | Current Version | Previous Version | Text Only | Print | Product List | Glossary On
Versions: 1 2 3 4 5 6 7 8 9 10 11 12 13 14 15 16 17 18 19 20 21
988
FTUS41 KBGM 190540
TAFAVP
TAF
KAVP 190540Z 1906/2006 VRB03KT 3SM BR FEW005 OVC015
      TEMPO 1906/1908 OVC005
     FM190800 VRB03KT 4SM BR SCT015 OVC025
      TEMPO 1908/1912 OVC015
     FM191500 30005KT P6SM BKN030
     FM192000 32005KT P6SM SCT030=

USA.gov is the U.S. government's official web portal to all federal, state and local government web resources and services.